createdAt,value
2019-05-10T00:00:23.885Z,10.53
2019-05-10T00:01:45.050Z,12.07
2019-05-10T00:03:05.822Z,8.58
2019-05-10T00:04:26.969Z,8.53
2019-05-10T00:05:48.720Z,12.45
2019-05-10T00:07:09.860Z,9.95
2019-05-10T00:08:30.645Z,7.53
2019-05-10T00:09:33.355Z,6.60
2019-05-10T00:10:35.795Z,7.80
2019-05-10T00:11:56.232Z,12.58
2019-05-10T00:13:17.379Z,6.50
2019-05-10T00:14:45.630Z,7.78
2019-05-10T00:15:49.264Z,10.72
2019-05-10T00:16:54.551Z,8.70
2019-05-10T00:18:00.013Z,12.13
2019-05-10T00:19:03.926Z,6.42
2019-05-10T00:20:07.460Z,14.55
2019-05-10T00:21:11.020Z,6.78
2019-05-10T00:23:21.048Z,5.80
2019-05-10T00:24:25.983Z,7.40
2019-05-10T00:25:30.691Z,6.42
2019-05-10T00:26:35.966Z,9.65
2019-05-10T00:27:41.506Z,6.60
2019-05-10T00:28:48.948Z,4.78
2019-05-10T00:29:53.956Z,6.72
2019-05-10T00:30:58.895Z,6.35
2019-05-10T00:32:03.480Z,5.40
2019-05-10T00:33:08.407Z,9.43
2019-05-10T00:34:13.175Z,8.00
2019-05-10T00:35:18.357Z,5.97
2019-05-10T00:36:23.725Z,6.30
2019-05-10T00:37:29.545Z,7.58
2019-05-10T00:38:34.632Z,7.12
2019-05-10T00:39:39.594Z,7.62
2019-05-10T00:40:44.767Z,4.72
2019-05-10T00:41:50.292Z,5.37
2019-05-10T00:42:55.462Z,8.20
2019-05-10T00:44:01.307Z,6.95
2019-05-10T00:45:06.752Z,6.12
2019-05-10T00:46:11.688Z,5.78
2019-05-10T00:47:16.420Z,5.05
2019-05-10T00:48:24.760Z,8.43
2019-05-10T00:49:29.800Z,8.60
2019-05-10T00:50:34.441Z,3.95
2019-05-10T00:51:39.547Z,7.70
2019-05-10T00:52:44.776Z,8.78
2019-05-10T00:53:49.238Z,5.83
2019-05-10T00:54:54.999Z,6.72
2019-05-10T00:55:59.452Z,6.53
2019-05-10T00:57:04.338Z,5.70
2019-05-10T00:58:08.882Z,6.85
2019-05-10T00:59:13.972Z,7.00
2019-05-10T01:00:18.464Z,8.58
2019-05-10T01:01:23.982Z,5.20
2019-05-10T01:02:28.693Z,5.80
2019-05-10T01:03:34.167Z,4.85
2019-05-10T01:04:39.335Z,6.65
2019-05-10T01:05:44.582Z,8.68
2019-05-10T01:06:49.483Z,5.10
2019-05-10T01:07:55.313Z,5.75
2019-05-10T01:09:00.297Z,5.40
2019-05-10T01:10:05.498Z,5.42
2019-05-10T01:11:10.771Z,6.03
2019-05-10T01:12:16.052Z,3.85
2019-05-10T01:13:20.853Z,7.62
2019-05-10T01:14:25.738Z,8.33
2019-05-10T01:15:30.829Z,5.40
2019-05-10T01:16:36.281Z,7.12
2019-05-10T01:17:40.966Z,5.85
2019-05-10T01:18:46.200Z,6.50
2019-05-10T01:19:51.341Z,7.67
2019-05-10T01:20:56.788Z,6.92
2019-05-10T01:22:01.814Z,5.67
2019-05-10T01:23:06.720Z,4.90
2019-05-10T01:24:11.462Z,7.33
2019-05-10T01:25:16.181Z,6.85
2019-05-10T01:26:21.938Z,6.62
2019-05-10T01:27:26.940Z,7.15
2019-05-10T01:28:32.290Z,6.67
2019-05-10T01:29:37.783Z,7.22
2019-05-10T01:30:42.892Z,8.10
2019-05-10T01:31:48.309Z,4.75
2019-05-10T01:32:53.298Z,4.87
2019-05-10T01:33:58.480Z,5.00
2019-05-10T01:35:03.388Z,6.28
2019-05-10T01:36:08.303Z,5.70
2019-05-10T01:37:13.509Z,6.92
2019-05-10T01:38:19.453Z,6.55
2019-05-10T01:39:24.170Z,7.70
2019-05-10T01:40:29.364Z,5.17
2019-05-10T01:41:34.714Z,11.40
2019-05-10T01:42:39.341Z,6.35
2019-05-10T01:43:44.189Z,7.25
2019-05-10T01:44:49.958Z,8.25
2019-05-10T01:45:54.754Z,7.12
2019-05-10T01:47:00.236Z,6.42
2019-05-10T01:48:05.234Z,4.30
2019-05-10T01:49:10.462Z,5.97
2019-05-10T01:50:15.637Z,6.22
2019-05-10T01:51:20.556Z,5.65
2019-05-10T01:52:25.605Z,6.00
2019-05-10T01:53:30.718Z,6.40
2019-05-10T01:54:35.761Z,6.65
2019-05-10T01:55:51.346Z,5.55
2019-05-10T01:56:47.972Z,9.25
2019-05-10T01:57:53.148Z,8.60
2019-05-10T01:58:57.949Z,8.08
2019-05-10T02:00:03.369Z,8.53
2019-05-10T02:01:08.407Z,4.53
2019-05-10T02:02:13.550Z,9.00
2019-05-10T02:03:18.341Z,6.22
2019-05-10T02:04:24.099Z,6.62
2019-05-10T02:05:29.103Z,7.92
2019-05-10T02:06:34.063Z,9.73
2019-05-10T02:07:39.158Z,6.95
2019-05-10T02:08:44.637Z,6.35
2019-05-10T02:09:49.628Z,8.23
2019-05-10T02:10:54.273Z,10.38
2019-05-10T02:11:59.550Z,8.98
2019-05-10T02:13:04.434Z,8.00
2019-05-10T02:14:09.171Z,8.58
2019-05-10T02:15:14.156Z,7.55
2019-05-10T02:16:19.170Z,9.50
2019-05-10T02:17:24.098Z,7.53
2019-05-10T02:18:29.363Z,8.45
2019-05-10T02:19:34.647Z,5.95
2019-05-10T02:20:40.189Z,7.78
2019-05-10T02:21:45.760Z,6.83
2019-05-10T02:22:50.787Z,6.25
2019-05-10T02:23:55.669Z,7.08
2019-05-10T02:25:00.168Z,5.97
2019-05-10T02:26:09.661Z,7.40
2019-05-10T02:27:11.862Z,6.22
2019-05-10T02:28:17.055Z,8.65
2019-05-10T02:29:22.031Z,9.75
2019-05-10T02:30:26.941Z,6.83
2019-05-10T02:31:32.005Z,5.72
2019-05-10T02:32:37.448Z,6.28
2019-05-10T02:33:42.994Z,5.40
2019-05-10T02:34:48.752Z,6.87
2019-05-10T02:35:53.493Z,8.10
2019-05-10T02:36:58.729Z,6.58
2019-05-10T02:38:04.131Z,7.00
2019-05-10T02:39:10.168Z,6.17
2019-05-10T02:40:15.330Z,8.03
2019-05-10T02:41:20.465Z,6.55
2019-05-10T02:42:25.239Z,8.13
2019-05-10T02:43:30.683Z,5.95
2019-05-10T02:44:35.936Z,7.35
2019-05-10T02:45:40.783Z,7.20
2019-05-10T02:46:45.785Z,7.40
2019-05-10T02:47:50.988Z,7.42
2019-05-10T02:48:56.318Z,9.00
2019-05-10T02:50:01.742Z,5.90
2019-05-10T02:51:06.459Z,7.47
2019-05-10T02:52:11.898Z,13.18
2019-05-10T02:53:16.621Z,9.60
2019-05-10T02:54:21.824Z,6.90
2019-05-10T02:55:27.709Z,7.22
2019-05-10T02:56:35.789Z,5.80
2019-05-10T02:57:42.075Z,9.48
2019-05-10T02:58:47.338Z,7.15
2019-05-10T02:59:52.216Z,9.58
2019-05-10T03:00:58.865Z,7.15
2019-05-10T03:02:05.976Z,8.20
2019-05-10T03:03:11.995Z,7.42
2019-05-10T03:04:16.743Z,9.18
2019-05-10T03:05:21.969Z,6.55
2019-05-10T03:06:28.747Z,10.45
2019-05-10T03:07:38.330Z,7.80
2019-05-10T03:08:49.132Z,7.67
2019-05-10T03:09:54.396Z,7.30
2019-05-10T03:11:00.028Z,7.67
2019-05-10T03:12:18.810Z,6.97
2019-05-10T03:13:27.194Z,7.62
2019-05-10T03:14:35.407Z,7.30
2019-05-10T03:15:42.615Z,5.15
2019-05-10T03:16:51.297Z,6.25
2019-05-10T03:17:58.065Z,7.60
2019-05-10T03:19:04.446Z,8.30
2019-05-10T03:20:09.779Z,8.83
2019-05-10T03:21:17.905Z,9.80
2019-05-10T03:22:24.034Z,7.90
2019-05-10T03:23:28.898Z,9.50
2019-05-10T03:24:34.291Z,8.83
2019-05-10T03:25:39.464Z,8.98
2019-05-10T03:26:50.833Z,7.65
2019-05-10T03:27:53.759Z,7.35
2019-05-10T03:28:58.741Z,7.60
2019-05-10T03:30:03.661Z,7.80
2019-05-10T03:31:08.389Z,7.33
2019-05-10T03:32:13.607Z,7.55
2019-05-10T03:33:18.729Z,8.50
2019-05-10T03:34:23.865Z,8.45
2019-05-10T03:35:28.900Z,8.20
2019-05-10T03:36:34.124Z,9.20
2019-05-10T03:37:39.168Z,9.20
2019-05-10T03:38:44.770Z,10.08
2019-05-10T03:39:50.126Z,10.25
2019-05-10T03:40:55.317Z,6.30
2019-05-10T03:42:00.614Z,7.87
2019-05-10T03:43:05.788Z,8.08
2019-05-10T03:44:10.784Z,8.65
2019-05-10T03:45:16.108Z,11.93
2019-05-10T03:46:20.935Z,7.50
2019-05-10T03:47:25.840Z,6.83
2019-05-10T03:48:31.169Z,9.50
2019-05-10T03:49:36.089Z,8.75
2019-05-10T03:50:41.384Z,6.80
2019-05-10T03:51:46.928Z,7.75
2019-05-10T03:52:52.805Z,10.40
2019-05-10T03:53:57.857Z,7.65
2019-05-10T03:55:02.885Z,7.35
2019-05-10T03:56:08.375Z,13.95
2019-05-10T03:57:14.953Z,9.13
2019-05-10T03:58:20.205Z,7.85
2019-05-10T03:59:24.928Z,9.95
2019-05-10T04:00:30.135Z,9.95
2019-05-10T04:01:35.134Z,8.60
2019-05-10T04:02:39.809Z,10.43
2019-05-10T04:03:44.805Z,8.10
2019-05-10T04:04:50.099Z,7.33
2019-05-10T04:05:55.144Z,8.75
2019-05-10T04:07:00.688Z,9.95
2019-05-10T04:08:05.818Z,8.68
2019-05-10T04:09:10.742Z,11.80
2019-05-10T04:10:20.425Z,10.03
2019-05-10T04:11:23.311Z,8.83
2019-05-10T04:12:28.667Z,10.45
2019-05-10T04:13:34.223Z,8.88
2019-05-10T04:14:39.235Z,12.13
2019-05-10T04:15:44.933Z,9.88
2019-05-10T04:16:50.215Z,12.90
2019-05-10T04:17:56.004Z,8.98
2019-05-10T04:19:01.334Z,10.72
2019-05-10T04:20:06.948Z,11.10
2019-05-10T04:21:12.066Z,8.90
2019-05-10T04:22:16.930Z,12.40
2019-05-10T04:23:22.207Z,10.85
2019-05-10T04:24:27.020Z,12.47
2019-05-10T04:25:32.039Z,11.50
2019-05-10T04:26:37.220Z,9.58
2019-05-10T04:27:42.386Z,12.30
2019-05-10T04:28:47.580Z,10.95
2019-05-10T04:29:52.292Z,7.60
2019-05-10T04:30:57.556Z,11.90
2019-05-10T04:32:02.312Z,10.00
2019-05-10T04:33:07.465Z,9.68
2019-05-10T04:34:12.501Z,12.47
2019-05-10T04:35:17.637Z,13.15
2019-05-10T04:36:23.037Z,10.45
2019-05-10T04:37:28.249Z,11.70
2019-05-10T04:38:33.031Z,10.60
2019-05-10T04:39:37.928Z,11.68
2019-05-10T04:40:43.543Z,11.43
2019-05-10T04:41:48.493Z,10.93
2019-05-10T04:42:54.101Z,10.40
2019-05-10T04:43:59.035Z,13.35
2019-05-10T04:45:04.023Z,12.03
2019-05-10T04:46:08.678Z,12.90
2019-05-10T04:47:13.426Z,11.40
2019-05-10T04:48:18.622Z,10.88
2019-05-10T04:49:23.334Z,14.13
2019-05-10T04:50:28.248Z,10.58
2019-05-10T04:51:33.289Z,11.45
2019-05-10T04:52:38.283Z,12.40
2019-05-10T04:53:43.515Z,12.18
2019-05-10T04:54:49.247Z,15.30
2019-05-10T04:55:54.563Z,13.13
2019-05-10T04:57:00.366Z,10.05
2019-05-10T04:58:05.318Z,10.30
2019-05-10T04:59:10.227Z,10.90
2019-05-10T05:00:14.971Z,13.65
2019-05-10T05:01:20.270Z,13.83
2019-05-10T05:02:25.672Z,13.68
2019-05-10T05:03:31.120Z,10.72
2019-05-10T05:04:36.125Z,11.80
2019-05-10T05:05:41.265Z,11.75
2019-05-10T05:06:46.537Z,12.65
2019-05-10T05:07:52.303Z,10.45
2019-05-10T05:08:57.891Z,11.60
2019-05-10T05:10:03.090Z,14.33
2019-05-10T05:11:08.354Z,13.85
2019-05-10T05:12:13.507Z,13.93
2019-05-10T05:13:18.857Z,12.63
2019-05-10T05:14:24.598Z,12.43
2019-05-10T05:15:29.560Z,11.85
2019-05-10T05:16:34.457Z,12.82
2019-05-10T05:17:39.730Z,11.88
2019-05-10T05:18:45.049Z,13.25
2019-05-10T05:19:50.714Z,12.78
2019-05-10T05:20:55.389Z,15.15
2019-05-10T05:22:00.673Z,13.45
2019-05-10T05:23:05.677Z,13.00
2019-05-10T05:24:10.975Z,11.12
2019-05-10T05:25:16.332Z,15.38
2019-05-10T05:26:21.052Z,13.32
2019-05-10T05:27:26.489Z,11.53
2019-05-10T05:28:31.171Z,13.35
2019-05-10T05:29:37.100Z,14.60
2019-05-10T05:30:41.575Z,14.55
2019-05-10T05:31:47.055Z,12.35
2019-05-10T05:32:52.296Z,14.93
2019-05-10T05:33:59.197Z,12.37
2019-05-10T05:35:04.232Z,11.50
2019-05-10T05:36:09.688Z,11.03
2019-05-10T05:37:14.774Z,13.50
2019-05-10T05:38:20.579Z,17.37
2019-05-10T05:39:25.561Z,12.88
2019-05-10T05:40:30.505Z,11.53
2019-05-10T05:41:47.624Z,11.55
2019-05-10T05:42:42.482Z,10.45
2019-05-10T05:43:48.249Z,13.05
2019-05-10T05:44:53.338Z,12.40
2019-05-10T05:45:58.045Z,15.15
2019-05-10T05:47:04.809Z,11.73
2019-05-10T05:48:09.617Z,15.83
2019-05-10T05:49:14.918Z,14.53
2019-05-10T05:50:19.612Z,15.25
2019-05-10T05:51:24.316Z,13.43
2019-05-10T05:52:29.872Z,14.03
2019-05-10T05:53:35.938Z,14.53
2019-05-10T05:54:41.503Z,12.25
2019-05-10T05:55:46.469Z,10.98
2019-05-10T05:56:53.056Z,11.57
2019-05-10T05:57:59.140Z,16.82
2019-05-10T05:59:08.621Z,12.63
2019-05-10T06:00:12.401Z,16.15
2019-05-10T06:01:25.851Z,13.03
2019-05-10T06:02:24.347Z,12.93
2019-05-10T06:03:29.971Z,14.47
2019-05-10T06:04:35.152Z,11.45
2019-05-10T06:05:39.607Z,15.45
2019-05-10T06:06:44.551Z,12.90
2019-05-10T06:07:52.409Z,12.80
2019-05-10T06:08:59.682Z,14.33
2019-05-10T06:10:03.096Z,13.53
2019-05-10T06:11:09.154Z,12.85
2019-05-10T06:12:14.305Z,15.50
2019-05-10T06:13:23.490Z,14.87
2019-05-10T06:14:26.353Z,12.93
2019-05-10T06:15:31.650Z,13.90
2019-05-10T06:16:36.531Z,13.93
2019-05-10T06:17:41.768Z,13.90
2019-05-10T06:18:48.896Z,13.22
2019-05-10T06:19:54.020Z,13.80
2019-05-10T06:20:59.565Z,16.60
2019-05-10T06:22:06.758Z,13.40
2019-05-10T06:23:11.473Z,16.32
2019-05-10T06:24:16.408Z,13.22
2019-05-10T06:25:38.093Z,16.42
2019-05-10T06:26:28.949Z,16.57
2019-05-10T06:27:35.283Z,16.48
2019-05-10T06:28:58.569Z,16.50
2019-05-10T06:29:47.748Z,14.15
2019-05-10T06:30:53.508Z,16.97
2019-05-10T06:31:59.019Z,14.78
2019-05-10T06:33:12.699Z,14.53
2019-05-10T06:34:11.494Z,12.90
2019-05-10T06:35:19.569Z,14.13
2019-05-10T06:36:22.707Z,14.28
2019-05-10T06:37:31.235Z,13.80
2019-05-10T06:38:34.584Z,13.40
2019-05-10T06:39:39.533Z,15.45
2019-05-10T06:40:47.733Z,16.90
2019-05-10T06:41:56.158Z,16.50
2019-05-10T06:42:58.559Z,14.63
2019-05-10T06:44:03.712Z,13.98
2019-05-10T06:45:14.363Z,13.65
2019-05-10T06:46:16.048Z,19.27
2019-05-10T06:47:22.033Z,17.02
2019-05-10T06:48:33.227Z,14.10
2019-05-10T06:49:33.552Z,14.03
2019-05-10T06:50:39.023Z,13.98
2019-05-10T06:51:48.961Z,13.18
2019-05-10T06:52:52.130Z,15.93
2019-05-10T06:53:57.326Z,12.13
2019-05-10T06:55:02.845Z,15.58
2019-05-10T06:56:08.126Z,14.95
2019-05-10T06:57:17.460Z,16.02
2019-05-10T06:58:19.257Z,12.53
2019-05-10T06:59:25.046Z,15.35
2019-05-10T07:00:30.810Z,14.40
2019-05-10T07:01:38.275Z,16.65
2019-05-10T07:02:43.076Z,12.78
2019-05-10T07:03:47.998Z,15.20
2019-05-10T07:04:52.729Z,12.30
2019-05-10T07:05:57.937Z,12.88
2019-05-10T07:07:09.374Z,14.87
2019-05-10T07:08:19.555Z,13.18
2019-05-10T07:09:17.304Z,12.50
2019-05-10T07:10:25.234Z,18.15
2019-05-10T07:11:29.043Z,13.53
2019-05-10T07:12:34.111Z,15.32
2019-05-10T07:13:45.660Z,12.37
2019-05-10T07:14:46.486Z,12.68
2019-05-10T07:15:52.807Z,11.85
2019-05-10T07:17:02.516Z,15.58
2019-05-10T07:18:04.222Z,14.03
2019-05-10T07:19:09.101Z,13.45
2019-05-10T07:20:14.308Z,12.03
2019-05-10T07:21:22.386Z,16.27
2019-05-10T07:22:28.987Z,12.63
2019-05-10T07:23:39.130Z,13.90
2019-05-10T07:24:40.524Z,12.82
2019-05-10T07:25:46.767Z,12.90
2019-05-10T07:26:56.703Z,15.20
2019-05-10T07:27:58.685Z,12.15
2019-05-10T07:29:03.625Z,13.60
2019-05-10T07:30:08.856Z,14.45
2019-05-10T07:31:13.835Z,10.95
2019-05-10T07:32:21.932Z,12.05
2019-05-10T07:33:25.186Z,14.07
2019-05-10T07:34:30.415Z,12.68
2019-05-10T07:35:36.987Z,15.78
2019-05-10T07:36:42.513Z,11.80
2019-05-10T07:37:51.809Z,11.33
2019-05-10T07:38:57.476Z,11.40
2019-05-10T07:40:03.475Z,13.03
2019-05-10T07:41:08.403Z,11.83
2019-05-10T07:42:13.182Z,13.53
2019-05-10T07:43:26.526Z,12.55
2019-05-10T07:44:24.915Z,11.50
2019-05-10T07:45:30.115Z,12.80
2019-05-10T07:46:39.996Z,11.28
2019-05-10T07:47:42.047Z,12.07
2019-05-10T07:48:52.646Z,12.05
2019-05-10T07:49:53.780Z,11.53
2019-05-10T07:50:58.503Z,10.82
2019-05-10T07:52:04.470Z,13.35
2019-05-10T07:53:09.645Z,13.98
2019-05-10T07:54:15.106Z,11.15
2019-05-10T07:55:27.723Z,12.58
2019-05-10T07:56:27.070Z,12.73
2019-05-10T07:57:32.066Z,11.57
2019-05-10T07:58:38.126Z,11.38
2019-05-10T07:59:50.855Z,12.53
2019-05-10T08:00:50.631Z,11.10
2019-05-10T08:01:56.068Z,12.85
2019-05-10T08:03:12.390Z,11.80
2019-05-10T08:04:08.963Z,10.72
2019-05-10T08:05:15.495Z,10.95
2019-05-10T08:06:20.661Z,11.20
2019-05-10T08:07:29.259Z,11.20
2019-05-10T08:08:33.578Z,10.95
2019-05-10T08:09:44.730Z,10.95
2019-05-10T08:10:44.789Z,10.68
2019-05-10T08:11:54.068Z,11.08
2019-05-10T08:12:59.517Z,12.63
2019-05-10T08:14:06.294Z,11.08
2019-05-10T08:15:11.378Z,11.43
2019-05-10T08:16:21.890Z,11.97
2019-05-10T08:17:23.385Z,11.50
2019-05-10T08:18:29.315Z,11.53
2019-05-10T08:19:37.525Z,11.83
2019-05-10T08:20:53.289Z,11.97
2019-05-10T08:21:48.816Z,11.63
2019-05-10T08:22:54.889Z,15.80
2019-05-10T08:24:05.224Z,11.75
2019-05-10T08:25:06.924Z,11.97
2019-05-10T08:26:20.250Z,11.53
2019-05-10T08:27:18.585Z,11.93
2019-05-10T08:28:28.018Z,11.73
2019-05-10T08:29:32.861Z,12.78
2019-05-10T08:30:51.842Z,12.30
2019-05-10T08:31:55.183Z,12.98
2019-05-10T08:33:00.175Z,12.58
2019-05-10T08:34:02.974Z,12.55
2019-05-10T08:35:16.394Z,14.25
2019-05-10T08:36:15.031Z,12.85
2019-05-10T08:37:30.739Z,13.45
2019-05-10T08:38:26.355Z,12.98
2019-05-10T08:39:34.826Z,12.45
2019-05-10T08:40:38.296Z,12.40
2019-05-10T08:41:45.518Z,12.60
2019-05-10T08:43:03.191Z,13.03
2019-05-10T08:43:57.126Z,12.37
2019-05-10T08:45:05.462Z,13.10
2019-05-10T08:46:11.806Z,12.53
2019-05-10T08:47:24.126Z,12.93
2019-05-10T08:48:23.301Z,14.05
2019-05-10T08:49:35.412Z,13.32
2019-05-10T08:50:49.534Z,13.13
2019-05-10T08:51:47.713Z,14.03
2019-05-10T08:52:49.025Z,13.70
2019-05-10T08:53:58.126Z,13.72
2019-05-10T08:55:02.813Z,13.70
2019-05-10T08:56:07.515Z,13.55
2019-05-10T08:57:18.559Z,13.62
2019-05-10T08:58:31.029Z,14.78
2019-05-10T08:59:30.268Z,14.60
2019-05-10T09:00:49.030Z,15.78
2019-05-10T09:01:46.805Z,14.20
2019-05-10T09:02:47.441Z,14.30
2019-05-10T09:03:59.395Z,14.15
2019-05-10T09:04:58.788Z,14.00
2019-05-10T09:06:11.715Z,15.18
2019-05-10T09:07:11.976Z,14.20
2019-05-10T09:08:20.394Z,15.18
2019-05-10T09:09:23.558Z,13.50
2019-05-10T09:10:28.263Z,13.98
2019-05-10T09:11:33.764Z,14.47
2019-05-10T09:12:44.185Z,13.72
2019-05-10T09:13:46.282Z,14.90
2019-05-10T09:14:57.576Z,15.32
2019-05-10T09:15:58.940Z,15.68
2019-05-10T09:17:04.694Z,15.38
2019-05-10T09:18:09.873Z,15.20
2019-05-10T09:19:14.580Z,16.48
2019-05-10T09:20:21.880Z,15.45
2019-05-10T09:21:26.809Z,17.07
2019-05-10T09:22:33.898Z,14.98
2019-05-10T09:23:38.708Z,14.95
2019-05-10T09:24:48.542Z,18.05
2019-05-10T09:25:51.932Z,16.25
2019-05-10T09:26:57.269Z,16.80
2019-05-10T09:28:11.541Z,16.00
2019-05-10T09:29:09.160Z,16.50
2019-05-10T09:30:18.385Z,15.48
2019-05-10T09:31:25.524Z,15.75
2019-05-10T09:32:29.386Z,17.32
2019-05-10T09:33:35.732Z,15.03
2019-05-10T09:34:42.643Z,14.13
2019-05-10T09:35:52.419Z,14.38
2019-05-10T09:36:54.951Z,11.65
2019-05-10T09:38:02.056Z,11.73
2019-05-10T09:39:09.059Z,12.70
2019-05-10T09:40:15.017Z,14.30
2019-05-10T09:41:22.657Z,14.75
2019-05-10T09:42:33.224Z,14.65
2019-05-10T09:43:33.395Z,14.23
2019-05-10T09:44:38.307Z,15.72
2019-05-10T09:45:43.048Z,13.30
2019-05-10T09:46:48.344Z,16.87
2019-05-10T09:47:53.149Z,16.42
2019-05-10T09:49:05.955Z,14.33
2019-05-10T09:50:06.571Z,14.80
2019-05-10T09:51:13.813Z,14.47
2019-05-10T09:52:18.975Z,15.88
2019-05-10T09:53:29.358Z,15.10
2019-05-10T09:54:33.530Z,13.93
2019-05-10T09:55:38.520Z,14.38
2019-05-10T09:56:44.897Z,14.58
2019-05-10T09:57:50.206Z,14.15
2019-05-10T09:58:58.043Z,15.50
2019-05-10T10:00:02.525Z,17.82
2019-05-10T10:01:14.663Z,14.63
2019-05-10T10:02:16.037Z,16.23
2019-05-10T10:03:20.556Z,16.77
2019-05-10T10:04:25.457Z,14.23
2019-05-10T10:05:29.988Z,14.40
2019-05-10T10:06:36.924Z,13.55
2019-05-10T10:07:41.412Z,15.45
2019-05-10T10:08:49.285Z,15.63
2019-05-10T10:09:53.411Z,15.03
2019-05-10T10:11:09.822Z,15.18
2019-05-10T10:12:06.920Z,15.23
2019-05-10T10:13:14.118Z,16.12
2019-05-10T10:14:18.663Z,13.08
2019-05-10T10:15:32.065Z,13.85
2019-05-10T10:16:30.413Z,14.85
2019-05-10T10:17:40.330Z,15.58
2019-05-10T10:18:41.866Z,13.45
2019-05-10T10:19:48.031Z,15.13
2019-05-10T10:20:52.862Z,14.33
2019-05-10T10:21:58.019Z,13.18
2019-05-10T10:23:03.285Z,13.53
2019-05-10T10:24:15.529Z,15.05
2019-05-10T10:25:17.550Z,13.38
2019-05-10T10:26:22.469Z,14.40
2019-05-10T10:27:34.216Z,14.05
2019-05-10T10:28:37.197Z,12.53
2019-05-10T10:29:40.762Z,13.40
2019-05-10T10:30:50.465Z,14.87
2019-05-10T10:31:55.789Z,12.37
2019-05-10T10:32:59.089Z,12.37
2019-05-10T10:34:03.588Z,12.55
2019-05-10T10:35:13.330Z,12.10
2019-05-10T10:36:15.406Z,13.65
2019-05-10T10:37:25.680Z,14.33
2019-05-10T10:38:30.945Z,13.28
2019-05-10T10:39:33.919Z,13.03
2019-05-10T10:40:44.201Z,12.45
2019-05-10T10:41:48.066Z,13.13
2019-05-10T10:42:52.643Z,12.13
2019-05-10T10:43:58.486Z,14.53
2019-05-10T10:45:03.302Z,11.05
2019-05-10T10:46:12.480Z,12.05
2019-05-10T10:47:14.851Z,11.73
2019-05-10T10:48:20.293Z,10.60
2019-05-10T10:49:29.270Z,11.40
2019-05-10T10:50:31.992Z,13.25
2019-05-10T10:51:37.928Z,12.50
2019-05-10T10:52:43.012Z,12.47
2019-05-10T10:53:47.595Z,12.65
2019-05-10T10:54:52.547Z,12.58
2019-05-10T10:56:03.601Z,11.80
2019-05-10T10:57:04.726Z,12.53
2019-05-10T10:58:09.987Z,13.32
2019-05-10T10:59:15.462Z,13.72
2019-05-10T11:00:33.247Z,13.20
2019-05-10T11:01:49.089Z,10.95
2019-05-10T11:02:46.935Z,9.45
2019-05-10T11:03:52.101Z,9.80
2019-05-10T11:04:57.149Z,8.75
2019-05-10T11:06:02.664Z,8.53
2019-05-10T11:07:10.803Z,9.63
2019-05-10T11:08:14.669Z,9.38
2019-05-10T11:09:20.723Z,8.05
2019-05-10T11:10:31.315Z,9.35
2019-05-10T11:11:39.176Z,10.55
2019-05-10T11:12:43.481Z,9.38
2019-05-10T11:13:57.496Z,8.25
2019-05-10T11:14:55.414Z,8.35
2019-05-10T11:16:09.658Z,7.15
2019-05-10T11:17:06.503Z,7.42
2019-05-10T11:18:11.564Z,7.92
2019-05-10T11:19:16.779Z,7.08
2019-05-10T11:20:21.655Z,7.97
2019-05-10T11:21:28.815Z,9.65
2019-05-10T11:22:33.579Z,7.78
2019-05-10T11:23:41.449Z,7.83
2019-05-10T11:24:45.259Z,8.13
2019-05-10T11:25:56.063Z,7.40
2019-05-10T11:26:57.320Z,7.85
2019-05-10T11:28:02.489Z,9.53
2019-05-10T11:29:06.996Z,9.88
2019-05-10T11:30:12.638Z,8.63
2019-05-10T11:31:17.664Z,10.05
2019-05-10T11:32:23.131Z,8.03
2019-05-10T11:33:30.799Z,8.38
2019-05-10T11:34:37.295Z,8.53
2019-05-10T11:35:41.712Z,7.85
2019-05-10T11:36:48.308Z,8.40
2019-05-10T11:37:53.590Z,8.45
2019-05-10T11:39:01.347Z,8.00
2019-05-10T11:40:05.932Z,8.60
2019-05-10T11:41:13.486Z,9.25
2019-05-10T11:42:18.346Z,9.03
2019-05-10T11:43:26.923Z,9.05
2019-05-10T11:44:31.678Z,8.90
2019-05-10T11:45:36.887Z,9.58
2019-05-10T11:46:41.733Z,9.80
2019-05-10T11:47:48.065Z,9.80
2019-05-10T11:48:53.335Z,10.43
2019-05-10T11:49:58.546Z,10.00
2019-05-10T11:51:05.765Z,10.35
2019-05-10T11:52:13.106Z,10.10
2019-05-10T11:53:17.616Z,10.25
2019-05-10T11:54:22.764Z,10.70
2019-05-10T11:55:27.480Z,12.25
2019-05-10T11:56:32.706Z,10.28
2019-05-10T11:57:43.662Z,10.82
2019-05-10T11:58:52.502Z,10.43
2019-05-10T11:59:51.944Z,11.63
2019-05-10T12:01:00.335Z,10.98
2019-05-10T12:02:08.426Z,10.90
2019-05-10T12:03:14.991Z,10.75
2019-05-10T12:04:24.052Z,10.78
2019-05-10T12:05:26.743Z,9.20
2019-05-10T12:06:31.938Z,9.95
2019-05-10T12:07:44.980Z,10.30
2019-05-10T12:08:44.683Z,10.00
2019-05-10T12:09:53.271Z,8.60
2019-05-10T12:11:08.395Z,8.45
2019-05-10T12:12:03.938Z,8.88
2019-05-10T12:13:18.536Z,8.40
2019-05-10T12:14:16.464Z,8.23
2019-05-10T12:15:25.284Z,9.08
2019-05-10T12:16:27.595Z,8.95
2019-05-10T12:17:32.908Z,9.43
2019-05-10T12:18:46.696Z,9.10
2019-05-10T12:19:50.495Z,8.73
2019-05-10T12:21:08.672Z,7.12
2019-05-10T12:22:03.562Z,6.80
2019-05-10T12:23:13.282Z,7.50
2019-05-10T12:24:31.378Z,6.70
2019-05-10T12:25:37.714Z,6.85
2019-05-10T12:27:43.972Z,7.20
2019-05-10T12:28:40.943Z,7.45
2019-05-10T12:29:46.586Z,6.47
2019-05-10T12:30:52.783Z,5.78
2019-05-10T12:31:57.660Z,5.70
2019-05-10T12:33:08.923Z,6.22
2019-05-10T12:34:13.973Z,6.40
2019-05-10T12:35:15.529Z,6.60
2019-05-10T12:36:26.010Z,6.47
2019-05-10T12:37:27.317Z,6.50
2019-05-10T12:38:35.703Z,6.10
2019-05-10T12:39:39.606Z,6.08
2019-05-10T12:40:45.869Z,5.42
2019-05-10T12:41:53.029Z,6.80
2019-05-10T12:43:00.571Z,6.08
2019-05-10T12:44:07.480Z,5.67
2019-05-10T12:45:11.592Z,6.28
2019-05-10T12:46:17.190Z,6.53
2019-05-10T12:47:22.351Z,6.47
2019-05-10T12:48:27.665Z,5.83
2019-05-10T12:49:32.578Z,6.53
2019-05-10T12:50:37.294Z,7.47
2019-05-10T12:51:43.210Z,6.35
2019-05-10T12:52:53.117Z,6.03
2019-05-10T12:53:54.670Z,5.62
2019-05-10T12:54:59.648Z,6.60
2019-05-10T12:56:04.579Z,6.05
2019-05-10T12:57:09.068Z,6.78
2019-05-10T12:58:14.302Z,5.97
2019-05-10T12:59:19.591Z,7.20
2019-05-10T13:00:25.498Z,5.75
2019-05-10T13:01:31.976Z,5.20
2019-05-10T13:02:38.142Z,5.70
2019-05-10T13:03:43.141Z,4.90
2019-05-10T13:04:52.452Z,6.75
2019-05-10T13:05:54.652Z,4.47
2019-05-10T13:07:00.474Z,6.08
2019-05-10T13:08:05.512Z,6.62
2019-05-10T13:09:10.720Z,4.60
2019-05-10T13:10:16.044Z,4.95
2019-05-10T13:11:25.309Z,4.65
2019-05-10T13:12:27.701Z,5.25
2019-05-10T13:13:32.968Z,4.28
2019-05-10T13:14:46.495Z,4.45
2019-05-10T13:15:48.466Z,5.58
2019-05-10T13:16:53.161Z,4.70
2019-05-10T13:17:58.674Z,5.90
2019-05-10T13:19:03.613Z,4.47
2019-05-10T13:20:10.389Z,4.22
2019-05-10T13:21:20.848Z,5.67
2019-05-10T13:22:22.168Z,4.30
2019-05-10T13:23:27.601Z,5.25
2019-05-10T13:24:33.169Z,4.00
2019-05-10T13:25:37.712Z,4.97
2019-05-10T13:26:43.840Z,4.10
2019-05-10T13:27:49.116Z,3.80
2019-05-10T13:28:54.854Z,3.98
2019-05-10T13:30:00.182Z,3.72
2019-05-10T13:31:07.132Z,4.60
2019-05-10T13:32:14.807Z,4.17
2019-05-10T13:33:28.568Z,3.45
2019-05-10T13:34:25.077Z,3.87
2019-05-10T13:35:30.296Z,4.08
2019-05-10T13:36:37.092Z,4.00
2019-05-10T13:37:42.354Z,3.55
2019-05-10T13:38:49.271Z,5.47
2019-05-10T13:39:58.128Z,4.67
2019-05-10T13:41:00.566Z,5.33
2019-05-10T13:42:09.167Z,3.83
2019-05-10T13:43:17.420Z,4.45
2019-05-10T13:44:18.694Z,4.65
2019-05-10T13:45:23.494Z,4.65
2019-05-10T13:46:28.719Z,4.60
2019-05-10T13:47:34.198Z,5.58
2019-05-10T13:48:39.132Z,6.30
2019-05-10T13:49:48.273Z,6.47
2019-05-10T13:50:51.284Z,7.65
2019-05-10T13:51:56.252Z,6.55
2019-05-10T13:53:01.123Z,5.08
2019-05-10T13:54:05.854Z,4.53
2019-05-10T13:55:10.773Z,5.97
2019-05-10T13:56:15.476Z,5.35
2019-05-10T13:57:20.954Z,5.85
2019-05-10T13:58:26.015Z,5.05
2019-05-10T13:59:30.926Z,4.85
2019-05-10T14:00:36.057Z,4.75
2019-05-10T14:01:44.130Z,6.53
2019-05-10T14:02:51.161Z,6.97
2019-05-10T14:04:01.434Z,5.22
2019-05-10T14:05:03.939Z,4.47
2019-05-10T14:06:09.224Z,5.85
2019-05-10T14:07:14.615Z,5.12
2019-05-10T14:08:20.085Z,6.87
2019-05-10T14:09:25.106Z,5.45
2019-05-10T14:10:30.392Z,5.53
2019-05-10T14:11:40.414Z,5.05
2019-05-10T14:12:41.848Z,10.18
2019-05-10T14:13:49.931Z,11.38
2019-05-10T14:15:01.929Z,5.55
2019-05-10T14:16:02.409Z,4.90
2019-05-10T14:17:07.583Z,7.12
2019-05-10T14:18:12.326Z,4.95
2019-05-10T14:19:22.743Z,5.62
2019-05-10T14:20:25.749Z,4.85
2019-05-10T14:21:31.211Z,5.35
2019-05-10T14:22:35.957Z,6.25
2019-05-10T14:23:40.857Z,5.40